Time;durP1;ratioP1;P1;durP2;ratioP2;P2;SDS_P1;SDS_P2;PMS_P1;PMS_P2;Temp;Humidity;BMP_temperature;BMP_pressure;BME280_temperature;BME280_humidity;BME280_pressure;Samples;Min_cycle;Max_cycle;Signal;HPM_P1;HPM_P2
2021/09/30 00:00:01;;;;;;;8.18;1.50;;;;;;;12.92;65.69;102414.78;5002672;28;20111;-48
2021/09/30 00:02:26;;;;;;;9.60;1.40;;;;;;;12.87;66.11;102412.84;4998352;28;20030;-47
2021/09/30 00:04:52;;;;;;;7.50;1.50;;;;;;;12.86;65.52;102417.25;4998689;28;20474;-48
2021/09/30 00:07:18;;;;;;;6.95;1.50;;;;;;;12.84;65.67;102418.91;4997362;28;20157;-48
2021/09/30 00:09:46;;;;;;;9.95;1.60;;;;;;;12.84;65.21;102426.75;4998245;28;20047;-52
2021/09/30 00:12:18;;;;;;;6.53;1.30;;;;;;;12.92;64.47;102432.22;5001882;28;20505;-50
2021/09/30 00:15:01;;;;;;;6.57;1.35;;;;;;;13.01;63.96;102429.84;5001579;28;21334;-48
2021/09/30 00:46:55;;;;;;;;;;;;;;;13.02;63.09;102443.00;5008770;28;20172;-48
2021/09/30 00:49:52;;;;;;;6.28;0.93;;;;;;;13.01;62.94;102441.22;5006045;28;19932;-48
2021/09/30 00:52:17;;;;;;;6.30;1.30;;;;;;;13.02;63.42;102443.00;5005757;28;20247;-48
2021/09/30 00:55:17;;;;;;;7.53;1.33;;;;;;;12.97;62.83;102449.84;5002379;28;20471;-50
2021/09/30 01:19:09;;;;;;;7.47;1.75;;;;;;;13.16;63.98;102453.00;5020324;28;20048;-52
2021/09/30 01:33:38;;;;;;;8.55;1.42;;;;;;;13.14;62.56;102450.34;5006260;28;20060;-51
2021/09/30 02:20:37;;;;;;;12.60;1.88;;;;;;;12.77;63.36;102461.44;5019146;28;20072;-53
2021/09/30 02:25:43;;;;;;;5.10;1.20;;;;;;;12.74;63.90;102460.47;4997105;28;20107;-49
2021/09/30 03:00:34;;;;;;;6.88;1.40;;;;;;;12.67;62.58;102461.13;4996972;28;20049;-49
2021/09/30 03:03:00;;;;;;;6.82;1.30;;;;;;;12.66;62.52;102461.97;4992588;28;21190;-47
2021/09/30 03:05:26;;;;;;;7.00;1.40;;;;;;;12.64;62.27;102464.53;5014918;28;20645;-50
2021/09/30 03:07:53;;;;;;;8.35;1.48;;;;;;;12.64;62.04;102463.66;5000554;28;20632;-51
2021/09/30 03:10:23;;;;;;;5.53;1.33;;;;;;;12.72;62.44;102470.00;5002958;28;20045;-49
2021/09/30 03:12:51;;;;;;;7.57;1.65;;;;;;;12.71;61.95;102463.88;5002154;28;20041;-50
2021/09/30 03:21:05;;;;;;;9.10;1.50;;;;;;;12.88;62.06;102474.84;4974233;28;20045;-49
2021/09/30 03:23:32;;;;;;;6.38;1.35;;;;;;;12.90;62.29;102474.06;5012623;28;20041;-50
2021/09/30 03:25:58;;;;;;;5.85;1.20;;;;;;;12.85;62.15;102473.03;5000827;28;20131;-47
2021/09/30 03:28:24;;;;;;;6.25;1.48;;;;;;;12.77;62.41;102477.16;4996936;28;20069;-47
2021/09/30 03:30:53;;;;;;;6.53;1.52;;;;;;;12.67;63.01;102482.97;5000666;28;20052;-49
2021/09/30 03:33:19;;;;;;;13.02;1.50;;;;;;;12.66;62.76;102481.19;4997335;28;20099;-48
2021/09/30 03:35:45;;;;;;;7.53;1.73;;;;;;;12.65;62.99;102487.25;5001353;28;20433;-51
2021/09/30 03:38:10;;;;;;;9.40;1.75;;;;;;;12.66;63.03;102486.41;5004444;28;20050;-49
2021/09/30 03:40:36;;;;;;;8.60;1.55;;;;;;;12.70;62.67;102490.88;4999201;28;20144;-49
2021/09/30 03:43:03;;;;;;;8.77;1.63;;;;;;;12.66;62.58;102491.66;4994636;28;20375;-49
2021/09/30 03:45:28;;;;;;;10.60;1.80;;;;;;;12.65;62.91;102494.22;5014649;28;20425;-51
2021/09/30 03:47:54;;;;;;;8.20;1.50;;;;;;;12.56;62.88;102494.84;5001750;28;20186;-54
2021/09/30 03:50:29;;;;;;;6.88;1.70;;;;;;;12.47;63.51;102502.38;5002692;28;20045;-48
2021/09/30 03:53:01;;;;;;;6.60;1.50;;;;;;;12.38;63.46;102494.25;4993597;28;20056;-53
2021/09/30 03:55:41;;;;;;;8.40;1.52;;;;;;;12.29;63.91;102500.06;4998000;28;20421;-49
2021/09/30 04:00:35;;;;;;;6.50;1.25;;;;;;;12.26;62.52;102501.72;5000231;28;20107;-48
2021/09/30 04:03:00;;;;;;;10.70;1.58;;;;;;;12.26;62.87;102505.19;4996654;28;20117;-50
2021/09/30 04:05:25;;;;;;;7.22;1.38;;;;;;;12.24;62.86;102506.00;5002081;28;20037;-48
2021/09/30 04:07:51;;;;;;;6.55;1.25;;;;;;;12.19;62.31;102508.47;5004666;28;20556;-51
2021/09/30 04:10:16;;;;;;;8.40;1.42;;;;;;;12.22;62.17;102511.16;4995748;28;20582;-48
2021/09/30 04:12:41;;;;;;;3.45;1.20;;;;;;;12.30;61.83;102516.66;4999691;28;20053;-48
2021/09/30 04:15:07;;;;;;;9.25;1.60;;;;;;;12.32;62.26;102517.59;4998062;28;20480;-49
2021/09/30 04:17:33;;;;;;;5.68;1.10;;;;;;;12.34;62.89;102513.28;5003596;28;20117;-47
2021/09/30 04:19:58;;;;;;;4.07;1.00;;;;;;;12.45;62.22;102515.41;5005298;28;20187;-51
2021/09/30 04:22:23;;;;;;;7.30;1.42;;;;;;;12.53;61.82;102519.16;5004893;28;20044;-50
2021/09/30 04:24:50;;;;;;;5.97;1.08;;;;;;;12.55;61.73;102522.72;5009712;28;20149;-51
2021/09/30 04:27:16;;;;;;;7.65;1.30;;;;;;;12.58;61.81;102527.13;4995164;28;22008;-50
2021/09/30 04:29:41;;;;;;;7.45;1.48;;;;;;;12.59;62.33;102523.69;5002915;28;21248;-49
2021/09/30 04:32:07;;;;;;;9.90;1.25;;;;;;;12.59;62.41;102527.19;5004533;28;20124;-52
2021/09/30 04:34:32;;;;;;;7.07;1.52;;;;;;;12.66;61.85;102528.28;5005409;28;20525;-49
2021/09/30 04:36:58;;;;;;;6.38;1.30;;;;;;;12.74;61.81;102525.91;5007997;28;20183;-49
2021/09/30 04:39:23;;;;;;;7.47;1.65;;;;;;;12.80;61.57;102531.31;4997859;28;20288;-49
2021/09/30 04:41:49;;;;;;;6.30;1.50;;;;;;;12.86;61.43;102528.91;5000412;28;20038;-49
2021/09/30 04:44:14;;;;;;;7.68;1.42;;;;;;;12.84;61.93;102527.94;5008832;28;20037;-48
2021/09/30 04:46:40;;;;;;;9.63;1.77;;;;;;;12.82;61.09;102532.25;5001458;28;20049;-49
2021/09/30 04:49:05;;;;;;;6.75;1.52;;;;;;;12.86;61.04;102529.78;4996951;28;20175;-49
2021/09/30 04:51:31;;;;;;;9.45;1.45;;;;;;;12.82;61.14;102525.28;5000983;28;20034;-51
2021/09/30 04:53:56;;;;;;;8.30;1.80;;;;;;;12.74;61.12;102532.03;5007989;28;20047;-52
2021/09/30 04:56:21;;;;;;;5.82;1.45;;;;;;;12.76;60.83;102535.56;5003148;28;20050;-47
2021/09/30 04:58:47;;;;;;;7.00;1.60;;;;;;;12.65;60.94;102536.06;5002395;28;20042;-49
2021/09/30 05:01:12;;;;;;;9.25;1.40;;;;;;;12.55;62.02;102537.53;4993535;28;20126;-52
2021/09/30 05:03:38;;;;;;;6.93;1.55;;;;;;;12.46;61.10;102539.84;5004916;28;20056;-52
2021/09/30 05:06:03;;;;;;;11.05;1.67;;;;;;;12.40;61.35;102537.91;5006298;28;20068;-50
2021/09/30 05:08:33;;;;;;;7.10;1.50;;;;;;;12.37;61.48;102542.16;5006699;28;20123;-48
2021/09/30 05:10:59;;;;;;;7.07;1.30;;;;;;;12.32;61.64;102542.00;4997219;28;20048;-49
2021/09/30 05:13:35;;;;;;;8.43;1.38;;;;;;;12.24;61.69;102546.09;5000999;28;20045;-52
2021/09/30 05:16:01;;;;;;;6.75;1.27;;;;;;;12.23;62.83;102538.19;5007169;28;20045;-49
2021/09/30 05:18:26;;;;;;;7.00;1.60;;;;;;;12.20;62.68;102537.25;5001567;28;20034;-50
2021/09/30 05:20:52;;;;;;;5.88;1.30;;;;;;;12.13;62.72;102534.41;4997909;28;20045;-50
2021/09/30 05:23:17;;;;;;;10.45;1.50;;;;;;;12.10;62.65;102536.91;5003274;28;20045;-48
2021/09/30 05:25:43;;;;;;;6.60;1.30;;;;;;;12.00;62.84;102532.22;5005016;28;20081;-46
2021/09/30 05:28:08;;;;;;;7.47;1.50;;;;;;;11.97;62.83;102532.97;5002657;28;20172;-49
2021/09/30 05:30:34;;;;;;;6.40;1.30;;;;;;;11.91;63.04;102530.16;5004820;28;20151;-48
2021/09/30 05:32:59;;;;;;;8.73;1.63;;;;;;;11.88;63.51;102535.31;5012294;28;20041;-48
2021/09/30 05:35:25;;;;;;;8.30;1.38;;;;;;;11.88;63.60;102535.31;5005653;28;20405;-48
2021/09/30 05:37:50;;;;;;;9.05;1.40;;;;;;;11.87;63.71;102538.75;5006240;28;20060;-49
2021/09/30 05:40:16;;;;;;;7.45;1.40;;;;;;;11.90;63.51;102540.56;5002315;28;20077;-52
2021/09/30 05:42:43;;;;;;;8.48;1.25;;;;;;;12.00;62.99;102526.97;5003420;28;20033;-48
2021/09/30 05:45:11;;;;;;;8.10;1.20;;;;;;;12.11;62.47;102536.97;5012449;28;20246;-48
2021/09/30 05:47:37;;;;;;;8.82;1.45;;;;;;;12.09;62.65;102530.78;4997500;28;20448;-50
2021/09/30 05:50:03;;;;;;;4.78;1.23;;;;;;;12.10;62.74;102526.44;4997961;28;20116;-53
2021/09/30 05:52:29;;;;;;;4.70;1.27;;;;;;;11.95;63.35;102521.59;5005614;28;20513;-52
2021/09/30 05:54:54;;;;;;;5.47;1.20;;;;;;;11.90;63.51;102527.50;4993695;28;20056;-57
2021/09/30 05:57:20;;;;;;;4.03;1.10;;;;;;;11.83;63.98;102528.13;5003068;28;20910;-49
2021/09/30 05:59:46;;;;;;;5.65;1.17;;;;;;;11.75;64.91;102525.25;5017960;28;20645;-49
2021/09/30 06:10:28;;;;;;;8.68;1.90;;;;;;;11.79;65.16;102527.13;5000992;28;20068;-48
2021/09/30 06:13:06;;;;;;;4.30;1.15;;;;;;;11.86;65.48;102529.13;5000265;28;20057;-48
2021/09/30 06:15:34;;;;;;;10.25;1.58;;;;;;;11.92;66.00;102528.44;5004233;28;20049;-51
2021/09/30 06:18:01;;;;;;;4.90;1.20;;;;;;;12.06;64.63;102535.03;4999893;28;20037;-47
2021/09/30 06:20:27;;;;;;;6.78;1.25;;;;;;;12.20;63.06;102545.09;5005587;28;20461;-47
2021/09/30 06:22:53;;;;;;;7.60;1.30;;;;;;;12.31;63.27;102540.25;5011138;28;20033;-50
2021/09/30 06:25:18;;;;;;;5.70;1.20;;;;;;;12.44;62.96;102537.16;5001167;28;20045;-49
2021/09/30 06:27:44;;;;;;;8.18;1.30;;;;;;;12.76;61.82;102537.28;4999730;28;20630;-50
2021/09/30 06:30:10;;;;;;;9.25;1.40;;;;;;;13.28;60.46;102532.81;5003214;28;20037;-52
2021/09/30 06:32:35;;;;;;;8.75;1.30;;;;;;;13.78;59.56;102533.31;5001911;28;20131;-48
2021/09/30 06:35:01;;;;;;;9.88;1.33;;;;;;;14.57;59.88;102530.09;4995974;28;20134;-51
2021/09/30 06:37:26;;;;;;;5.72;1.40;;;;;;;15.43;55.81;102526.69;5001381;28;20128;-51
2021/09/30 06:39:52;;;;;;;8.75;1.35;;;;;;;16.27;53.18;102530.91;4998075;28;20199;-48
2021/09/30 06:42:17;;;;;;;6.47;1.20;;;;;;;16.72;50.95;102524.56;5002373;28;20049;-49
2021/09/30 06:44:43;;;;;;;6.40;1.50;;;;;;;16.98;49.34;102518.81;5004131;28;20049;-51
2021/09/30 06:47:08;;;;;;;9.63;1.25;;;;;;;16.98;49.76;102525.81;5006015;28;20258;-50
2021/09/30 06:49:33;;;;;;;7.00;1.20;;;;;;;16.84;50.42;102525.63;5005843;28;20703;-50
2021/09/30 06:51:59;;;;;;;8.38;1.58;;;;;;;16.59;51.26;102529.66;4999718;28;20063;-50
2021/09/30 06:54:26;;;;;;;6.43;1.65;;;;;;;16.06;51.55;102533.16;4996498;28;20120;-55
2021/09/30 06:56:51;;;;;;;9.93;1.70;;;;;;;15.69;53.27;102536.84;4997684;28;20056;-50
2021/09/30 06:59:21;;;;;;;11.55;1.73;;;;;;;15.39;53.76;102535.38;4994399;28;20610;-50
2021/09/30 07:01:46;;;;;;;8.07;1.73;;;;;;;15.16;55.07;102536.66;4997057;28;20485;-52
2021/09/30 07:04:12;;;;;;;8.48;1.67;;;;;;;15.18;54.53;102544.59;4990185;28;20048;-54
2021/09/30 07:06:37;;;;;;;6.00;1.80;;;;;;;15.34;54.34;102539.66;4992442;28;20037;-50
2021/09/30 07:09:04;;;;;;;6.28;1.70;;;;;;;15.28;54.45;102536.91;4992990;28;20045;-53
2021/09/30 07:11:29;;;;;;;10.30;1.90;;;;;;;15.26;55.58;102542.97;5001231;28;20029;-52
2021/09/30 07:13:55;;;;;;;9.30;1.63;;;;;;;15.20;54.98;102541.13;4999644;28;20051;-50
2021/09/30 07:16:20;;;;;;;6.75;1.65;;;;;;;15.16;54.81;102547.16;4996539;28;20041;-51
2021/09/30 07:18:45;;;;;;;8.10;1.92;;;;;;;15.16;55.82;102549.78;5001513;28;20041;-48
2021/09/30 07:21:11;;;;;;;6.40;1.77;;;;;;;15.11;56.29;102542.69;4979457;28;20824;-52
2021/09/30 07:23:36;;;;;;;9.77;1.92;;;;;;;15.32;55.69;102546.63;5001655;28;20033;-52
2021/09/30 07:26:03;;;;;;;9.40;1.92;;;;;;;15.53;55.11;102558.47;4997814;28;20085;-50
2021/09/30 07:28:28;;;;;;;8.43;2.00;;;;;;;15.50;55.64;102556.63;5000975;28;20408;-51
2021/09/30 07:30:54;;;;;;;9.05;2.28;;;;;;;15.43;56.53;102557.34;4985454;28;20064;-55
2021/09/30 07:33:20;;;;;;;6.43;1.98;;;;;;;15.36;57.46;102555.47;5000921;28;20557;-52
2021/09/30 07:35:47;;;;;;;9.27;2.47;;;;;;;15.38;56.96;102554.63;5003742;28;20188;-53
2021/09/30 07:38:12;;;;;;;8.50;2.30;;;;;;;15.52;57.57;102546.13;4991476;28;20103;-53
2021/09/30 07:40:38;;;;;;;9.90;2.60;;;;;;;15.47;58.49;102561.81;4994646;28;21126;-52
2021/09/30 07:43:03;;;;;;;9.80;2.28;;;;;;;15.66;57.46;102558.75;4987950;28;20046;-51
2021/09/30 07:45:29;;;;;;;5.82;1.98;;;;;;;15.77;57.93;102559.81;4999401;28;20495;-52
2021/09/30 07:47:54;;;;;;;9.68;2.40;;;;;;;15.65;59.04;102554.34;4999484;28;20041;-54
2021/09/30 07:50:19;;;;;;;7.82;2.20;;;;;;;15.88;58.39;102556.50;5004081;28;20392;-53
2021/09/30 07:52:45;;;;;;;9.45;2.50;;;;;;;16.08;57.77;102561.28;5009901;28;20132;-51
2021/09/30 07:55:11;;;;;;;9.05;2.60;;;;;;;16.30;57.43;102553.72;4998295;28;20300;-53
2021/09/30 07:57:37;;;;;;;10.02;2.25;;;;;;;16.44;56.48;102568.91;5005399;28;20466;-52
2021/09/30 08:00:04;;;;;;;8.00;2.70;;;;;;;16.46;57.53;102567.19;4999907;28;20481;-51
2021/09/30 08:02:30;;;;;;;10.82;2.42;;;;;;;16.71;56.97;102570.22;5002134;28;20064;-53
2021/09/30 08:04:55;;;;;;;6.43;2.10;;;;;;;16.76;56.99;102565.91;5003625;28;20073;-53
2021/09/30 08:07:20;;;;;;;10.85;2.78;;;;;;;16.75;56.26;102569.41;5000299;28;20499;-52
2021/09/30 08:09:46;;;;;;;8.25;2.55;;;;;;;16.64;56.85;102569.25;5002676;28;20041;-53
2021/09/30 08:12:11;;;;;;;7.10;2.50;;;;;;;16.42;56.94;102572.34;5000726;28;20111;-54
2021/09/30 08:14:37;;;;;;;6.53;1.92;;;;;;;16.38;57.78;102575.81;5005627;28;20154;-50
2021/09/30 08:17:03;;;;;;;9.32;2.55;;;;;;;16.07;59.18;102571.75;4995140;28;20560;-49
2021/09/30 08:19:29;;;;;;;8.93;2.20;;;;;;;15.85;59.50;102566.97;5003078;28;20539;-53
2021/09/30 08:21:55;;;;;;;9.73;2.30;;;;;;;15.66;59.40;102558.75;5003903;28;20381;-51
2021/09/30 08:24:21;;;;;;;8.63;2.20;;;;;;;15.53;60.52;102566.34;5002698;28;20521;-51
2021/09/30 08:26:48;;;;;;;11.48;2.50;;;;;;;15.67;59.32;102560.53;5005945;28;20080;-52
2021/09/30 08:29:14;;;;;;;5.15;1.83;;;;;;;15.95;59.30;102556.66;4995442;28;20037;-54
2021/09/30 08:31:40;;;;;;;10.35;2.45;;;;;;;16.04;59.08;102561.19;5003674;28;20481;-49
2021/09/30 08:34:05;;;;;;;7.75;2.20;;;;;;;16.20;57.45;102557.97;4986745;28;20048;-51
2021/09/30 08:36:31;;;;;;;8.55;2.17;;;;;;;16.33;56.67;102557.31;5003128;28;20624;-52
2021/09/30 08:38:57;;;;;;;7.90;1.80;;;;;;;16.38;57.14;102558.28;4998261;28;20635;-50
2021/09/30 08:41:23;;;;;;;8.90;2.15;;;;;;;15.99;59.32;102553.19;5000241;28;20044;-51
2021/09/30 08:43:49;;;;;;;9.98;1.80;;;;;;;16.32;56.97;102550.28;5000294;28;20049;-55
2021/09/30 08:46:14;;;;;;;9.18;2.00;;;;;;;16.47;57.24;102555.75;5001751;28;20410;-56
2021/09/30 08:48:40;;;;;;;8.73;1.70;;;;;;;16.43;55.05;102550.44;5002436;28;20159;-53
2021/09/30 08:51:08;;;;;;;8.20;1.70;;;;;;;16.47;57.17;102553.13;4994737;28;20107;-53
2021/09/30 08:53:33;;;;;;;6.88;2.00;;;;;;;16.75;56.39;102554.50;5001536;28;20034;-56
2021/09/30 08:56:04;;;;;;;10.80;1.95;;;;;;;16.78;55.17;102551.00;5000099;28;20057;-49
2021/09/30 08:58:29;;;;;;;9.27;1.95;;;;;;;16.76;55.68;102550.13;5000518;28;20045;-53
2021/09/30 09:00:59;;;;;;;7.03;1.75;;;;;;;16.75;55.07;102556.22;4997669;28;20425;-55
2021/09/30 09:03:40;;;;;;;11.82;2.00;;;;;;;16.67;55.88;102561.38;5001066;28;20488;-54
2021/09/30 09:06:07;;;;;;;8.30;1.98;;;;;;;16.43;56.85;102550.44;5003679;28;20053;-55
2021/09/30 09:08:33;;;;;;;7.07;1.90;;;;;;;16.36;56.92;102549.44;5001063;28;20782;-54
2021/09/30 09:11:00;;;;;;;10.00;1.88;;;;;;;16.24;56.63;102555.41;4992825;28;20048;-54
2021/09/30 09:13:25;;;;;;;7.38;1.88;;;;;;;16.31;56.62;102551.13;5000636;28;20451;-50
2021/09/30 09:15:59;;;;;;;9.50;2.15;;;;;;;16.16;58.28;102549.09;5001881;28;20045;-49
2021/09/30 09:18:30;;;;;;;6.45;1.60;;;;;;;16.16;56.98;102545.63;4996222;28;20049;-53
2021/09/30 09:21:11;;;;;;;9.40;1.80;;;;;;;16.24;56.13;102544.88;4996188;28;20033;-53
2021/09/30 09:23:49;;;;;;;6.65;1.70;;;;;;;16.28;56.94;102545.84;5003973;28;20128;-50
2021/09/30 09:26:16;;;;;;;10.82;1.73;;;;;;;16.40;55.60;102542.50;5004952;28;20041;-51
2021/09/30 09:29:13;;;;;;;11.73;2.17;;;;;;;16.52;55.78;102547.97;5002891;28;20562;-54
2021/09/30 09:31:41;;;;;;;5.65;1.83;;;;;;;16.70;55.10;102545.66;4999953;28;20042;-55
2021/09/30 09:34:30;;;;;;;7.75;2.03;;;;;;;16.93;56.09;102538.06;5003036;28;20045;-50
2021/09/30 09:37:15;;;;;;;7.95;1.85;;;;;;;17.18;55.01;102532.25;4995789;28;20116;-51
2021/09/30 09:39:41;;;;;;;7.80;1.80;;;;;;;17.34;54.57;102534.19;5000422;28;20053;-53
2021/09/30 09:42:08;;;;;;;8.63;1.83;;;;;;;17.40;53.33;102523.72;5005225;28;20041;-52
2021/09/30 09:44:51;;;;;;;8.30;1.67;;;;;;;17.53;53.16;102522.09;5003503;28;20069;-54
2021/09/30 09:47:29;;;;;;;7.97;1.85;;;;;;;17.71;53.17;102522.34;4994189;28;20049;-52
2021/09/30 09:50:14;;;;;;;9.45;1.95;;;;;;;17.64;53.06;102522.25;5000259;28;20092;-53
2021/09/30 09:52:52;;;;;;;7.90;1.40;;;;;;;17.73;51.59;102525.00;5002045;28;20088;-55
2021/09/30 09:55:38;;;;;;;8.50;1.70;;;;;;;17.95;51.50;102519.03;4999687;28;20139;-53
2021/09/30 09:58:07;;;;;;;6.35;1.35;;;;;;;18.07;50.74;102519.16;5017583;28;20049;-52
2021/09/30 10:00:34;;;;;;;8.60;1.33;;;;;;;18.00;51.37;102525.25;4993718;28;20054;-49
2021/09/30 10:03:22;;;;;;;4.43;1.40;;;;;;;18.21;50.36;102520.16;4985887;28;20169;-49
2021/09/30 10:05:49;;;;;;;8.10;1.75;;;;;;;18.03;51.00;102503.28;5003931;28;20045;-50
2021/09/30 10:08:18;;;;;;;10.27;1.77;;;;;;;18.22;49.38;102513.13;5003246;28;20037;-49
2021/09/30 10:10:46;;;;;;;9.52;1.60;;;;;;;18.29;52.61;102516.72;5003981;28;20564;-51
2021/09/30 10:13:12;;;;;;;10.23;1.60;;;;;;;18.27;48.86;102516.69;4995241;28;20266;-52
2021/09/30 10:15:38;;;;;;;5.35;1.50;;;;;;;18.43;49.56;102512.38;4999340;28;20041;-54
2021/09/30 10:18:06;;;;;;;8.00;1.77;;;;;;;18.22;49.66;102508.75;5013484;28;20378;-55
2021/09/30 10:20:32;;;;;;;5.95;1.50;;;;;;;18.29;51.01;102509.66;5003414;28;21047;-53
2021/09/30 10:22:58;;;;;;;7.55;1.40;;;;;;;17.86;52.86;102504.91;4996304;28;20060;-55
2021/09/30 10:25:32;;;;;;;5.40;1.58;;;;;;;18.15;51.47;102508.66;5002669;28;20042;-55
2021/09/30 10:27:59;;;;;;;7.82;1.63;;;;;;;17.84;52.86;102503.13;5012497;28;20045;-53
2021/09/30 10:30:45;;;;;;;5.65;1.60;;;;;;;18.04;49.86;102505.06;4995582;28;20243;-49
2021/09/30 10:33:12;;;;;;;8.63;1.55;;;;;;;17.77;49.56;102493.38;4994810;28;20407;-54
2021/09/30 10:35:43;;;;;;;6.13;1.50;;;;;;;17.97;50.14;102496.19;4999695;28;20582;-54
2021/09/30 10:38:21;;;;;;;6.18;1.70;;;;;;;18.15;52.49;102503.38;5014631;28;20121;-53
2021/09/30 10:41:06;;;;;;;7.25;1.60;;;;;;;17.96;53.34;102494.44;4999824;28;20033;-58
2021/09/30 10:43:34;;;;;;;5.47;1.42;;;;;;;18.09;50.04;102503.34;5003162;28;20454;-55
2021/09/30 10:46:00;;;;;;;8.75;1.60;;;;;;;18.17;49.98;102506.94;4998422;28;20041;-54
2021/09/30 10:48:30;;;;;;;8.88;1.63;;;;;;;17.98;50.67;102505.91;5000379;28;20160;-50
2021/09/30 10:51:14;;;;;;;7.20;1.52;;;;;;;17.96;51.34;102499.72;4995841;28;20045;-55
2021/09/30 10:53:45;;;;;;;8.20;1.70;;;;;;;18.18;51.04;102517.47;5001677;28;20056;-54
2021/09/30 10:56:39;;;;;;;10.23;1.67;;;;;;;17.66;50.00;102504.69;4998934;28;20053;-53
2021/09/30 10:59:07;;;;;;;5.72;1.42;;;;;;;17.96;50.19;102496.19;4991003;28;20107;-57
2021/09/30 11:01:45;;;;;;;5.40;1.58;;;;;;;18.07;50.79;102502.44;4998921;28;20073;-54
2021/09/30 11:04:10;;;;;;;7.22;1.63;;;;;;;18.12;49.95;102498.06;5000997;28;20343;-50
2021/09/30 11:06:37;;;;;;;7.43;1.65;;;;;;;17.97;50.18;102490.94;4999676;28;20508;-55
2021/09/30 11:09:08;;;;;;;6.80;1.67;;;;;;;17.89;49.66;102503.16;4995750;28;20037;-54
2021/09/30 11:11:33;;;;;;;8.93;1.70;;;;;;;17.80;50.32;102497.81;4995793;28;20056;-54
2021/09/30 11:13:59;;;;;;;5.82;1.60;;;;;;;17.88;50.83;102506.66;4998348;28;20041;-53
2021/09/30 11:16:42;;;;;;;8.15;1.50;;;;;;;17.37;53.33;102499.09;4998670;28;20565;-52
2021/09/30 11:19:33;;;;;;;6.28;1.60;;;;;;;17.31;51.31;102488.47;5003121;28;20064;-51
2021/09/30 11:22:05;;;;;;;8.98;1.50;;;;;;;17.31;51.71;102502.53;4987566;28;20041;-55
2021/09/30 11:24:57;;;;;;;7.22;1.60;;;;;;;17.27;51.58;102487.53;5002869;28;20140;-52
2021/09/30 11:27:29;;;;;;;10.52;1.90;;;;;;;17.28;51.98;102489.31;4999438;28;20096;-54
2021/09/30 11:30:18;;;;;;;9.45;1.70;;;;;;;17.29;51.81;102490.19;4998148;28;20239;-52
2021/09/30 11:32:44;;;;;;;8.15;1.73;;;;;;;17.17;52.28;102488.31;4983657;28;20487;-52
2021/09/30 11:35:09;;;;;;;6.00;1.40;;;;;;;17.08;51.04;102492.59;4991635;28;20524;-51
2021/09/30 11:37:40;;;;;;;5.93;1.15;;;;;;;17.10;52.21;102486.47;5004016;28;20037;-50
2021/09/30 11:40:13;;;;;;;6.40;1.48;;;;;;;17.10;51.92;102485.56;4998756;28;20045;-55
2021/09/30 11:42:47;;;;;;;6.90;1.50;;;;;;;17.20;51.43;102479.56;4999574;28;20041;-52
2021/09/30 11:45:14;;;;;;;9.45;1.75;;;;;;;17.06;52.65;102475.88;4995614;28;20049;-50
2021/09/30 11:47:41;;;;;;;11.30;1.85;;;;;;;17.11;52.98;102479.44;5001438;28;20131;-50
2021/09/30 11:50:14;;;;;;;9.05;2.00;;;;;;;17.02;54.95;102473.19;5014332;28;20049;-51
2021/09/30 11:52:40;;;;;;;6.60;1.55;;;;;;;17.21;54.64;102473.41;5001659;28;20049;-55
2021/09/30 11:55:11;;;;;;;4.68;1.63;;;;;;;17.30;53.64;102463.88;4991875;28;20056;-53
2021/09/30 11:57:36;;;;;;;5.32;1.60;;;;;;;16.97;54.07;102469.59;4999033;28;20048;-54
2021/09/30 12:00:12;;;;;;;7.65;1.60;;;;;;;17.24;52.40;102468.19;4990325;28;20107;-56
2021/09/30 12:02:54;;;;;;;5.80;1.38;;;;;;;17.22;52.13;102465.50;4996698;28;20041;-51
2021/09/30 12:05:24;;;;;;;7.35;1.70;;;;;;;17.23;51.70;102458.50;5000746;28;20128;-53
2021/09/30 12:07:50;;;;;;;8.02;1.40;;;;;;;17.18;54.37;102455.81;4998936;28;20555;-52
2021/09/30 12:10:16;;;;;;;6.55;1.30;;;;;;;17.27;50.99;102449.75;4999066;28;20084;-49
2021/09/30 12:12:43;;;;;;;4.75;1.35;;;;;;;17.27;51.57;102455.91;4999766;28;20500;-52
2021/09/30 12:15:11;;;;;;;6.70;1.50;;;;;;;17.32;52.42;102448.91;4991860;28;20161;-54
2021/09/30 12:17:38;;;;;;;7.85;1.33;;;;;;;17.35;53.28;102445.44;5001313;28;20041;-51
2021/09/30 12:20:08;;;;;;;5.47;1.30;;;;;;;17.38;51.40;102442.88;4998070;28;20050;-50
2021/09/30 12:22:39;;;;;;;6.82;1.50;;;;;;;17.25;51.99;102447.13;4983722;28;20575;-53
2021/09/30 12:25:08;;;;;;;5.00;1.30;;;;;;;17.26;51.04;102446.22;4998276;28;20431;-50
2021/09/30 12:27:36;;;;;;;7.70;1.60;;;;;;;17.18;50.97;102436.47;5014379;28;20072;-52
2021/09/30 12:30:08;;;;;;;7.15;1.42;;;;;;;17.14;52.53;102443.44;4997926;28;20509;-51
2021/09/30 12:32:37;;;;;;;6.45;1.45;;;;;;;16.96;51.50;102430.06;5001135;28;20041;-52
2021/09/30 12:35:05;;;;;;;5.82;1.20;;;;;;;17.00;51.02;102416.09;4996755;28;20041;-54
2021/09/30 12:37:36;;;;;;;7.70;1.30;;;;;;;16.79;53.56;102421.06;4996694;28;20509;-52
2021/09/30 12:40:09;;;;;;;6.10;1.33;;;;;;;17.26;50.53;102416.38;4998677;28;20313;-50
2021/09/30 12:42:35;;;;;;;4.70;1.33;;;;;;;17.48;53.27;102409.53;5003067;28;20044;-51
2021/09/30 12:45:01;;;;;;;6.38;1.40;;;;;;;17.79;50.54;102404.59;4998855;28;20148;-54
2021/09/30 12:47:34;;;;;;;6.57;1.33;;;;;;;18.16;49.13;102405.75;5002918;28;20045;-48
2021/09/30 12:50:13;;;;;;;9.15;1.40;;;;;;;18.36;47.99;102395.28;5005846;28;20517;-52
2021/09/30 12:52:40;;;;;;;7.63;1.30;;;;;;;18.37;47.93;102388.25;5003232;28;20037;-53
2021/09/30 12:55:20;;;;;;;4.72;1.20;;;;;;;18.30;47.57;102389.97;4996902;28;20076;-54
2021/09/30 12:57:46;;;;;;;6.28;1.45;;;;;;;18.21;48.04;102392.56;5004224;28;20037;-49
2021/09/30 13:00:13;;;;;;;4.63;1.23;;;;;;;18.25;47.89;102382.03;5005413;28;20375;-53
2021/09/30 13:02:40;;;;;;;6.60;1.35;;;;;;;18.20;50.73;102377.59;5000163;28;20483;-52
2021/09/30 13:05:06;;;;;;;9.75;1.38;;;;;;;18.27;48.91;102371.47;4978599;28;20095;-54
2021/09/30 13:07:48;;;;;;;7.32;1.48;;;;;;;18.34;49.20;102367.13;4999528;28;20280;-54
2021/09/30 13:10:15;;;;;;;5.95;1.35;;;;;;;18.47;49.58;102363.66;5008116;28;20041;-53
2021/09/30 13:12:57;;;;;;;10.25;1.67;;;;;;;18.35;51.33;102359.22;5002765;28;20037;-54
2021/09/30 13:15:41;;;;;;;7.68;1.90;;;;;;;18.45;51.11;102353.09;4998283;28;20611;-54
2021/09/30 13:18:07;;;;;;;;;;;;;;;18.48;48.93;102354.88;4998943;28;20045;-50
2021/09/30 13:20:33;;;;;;;13.77;2.25;;;;;;;18.22;49.50;102352.97;5000813;28;19921;-50
2021/09/30 13:22:58;;;;;;;9.57;2.20;;;;;;;18.11;50.81;102348.53;4997135;28;20049;-50
2021/09/30 13:25:24;;;;;;;9.32;2.25;;;;;;;18.05;51.51;102345.84;5004563;28;20046;-54
2021/09/30 13:27:51;;;;;;;8.68;2.35;;;;;;;17.64;53.32;102351.69;4997735;28;20159;-53
2021/09/30 13:30:26;;;;;;;8.40;2.03;;;;;;;17.64;51.31;102343.78;4996644;28;20234;-53
2021/09/30 13:32:56;;;;;;;10.38;2.00;;;;;;;17.47;52.44;102333.94;5001035;28;20056;-53
2021/09/30 13:35:24;;;;;;;10.07;2.03;;;;;;;17.44;53.95;102335.69;5000215;28;20333;-53
2021/09/30 13:37:50;;;;;;;6.97;1.95;;;;;;;17.44;53.23;102334.81;5001525;28;20472;-53
2021/09/30 13:40:16;;;;;;;6.75;1.80;;;;;;;17.48;52.43;102323.41;4998899;28;20045;-50
2021/09/30 13:42:41;;;;;;;8.13;2.00;;;;;;;17.19;53.87;102322.28;4998797;28;20123;-50
2021/09/30 13:45:09;;;;;;;7.63;2.10;;;;;;;17.43;52.66;102323.38;4990246;28;20037;-54
2021/09/30 13:47:34;;;;;;;7.38;1.80;;;;;;;17.50;52.69;102316.41;4995260;28;20037;-52
2021/09/30 13:50:00;;;;;;;8.05;2.10;;;;;;;17.46;53.65;102311.97;5004277;28;20103;-52
2021/09/30 13:52:26;;;;;;;8.27;1.98;;;;;;;17.28;53.51;102307.44;5002608;28;20045;-50
2021/09/30 13:54:52;;;;;;;9.43;1.73;;;;;;;17.08;54.44;102303.72;5012845;28;20125;-52
2021/09/30 13:57:17;;;;;;;13.05;1.90;;;;;;;17.17;54.08;102295.91;4996299;28;20314;-51
2021/09/30 13:59:43;;;;;;;6.28;1.63;;;;;;;17.15;54.20;102299.41;5000927;28;20076;-53
2021/09/30 14:02:08;;;;;;;7.53;1.80;;;;;;;17.09;55.45;102296.69;4999579;28;20064;-53
2021/09/30 14:04:35;;;;;;;5.60;1.67;;;;;;;16.93;55.32;102287.78;4997242;28;20084;-50
2021/09/30 14:07:10;;;;;;;9.10;1.50;;;;;;;17.17;54.13;102300.31;4995457;28;20041;-53
2021/09/30 14:09:36;;;;;;;9.80;1.63;;;;;;;17.06;54.01;102294.06;4997672;28;20049;-51